createdAt,value
2023-05-31T00:01:12.195Z,13.50
2023-05-31T00:03:42.700Z,13.40
2023-05-31T00:06:11.346Z,13.40
2023-05-31T00:08:41.716Z,13.30
2023-05-31T00:11:10.237Z,13.30
2023-05-31T00:13:40.052Z,13.20
2023-05-31T00:16:22.952Z,13.20
2023-05-31T00:18:58.585Z,13.20
2023-05-31T00:21:27.250Z,13.10
2023-05-31T00:23:56.921Z,13.10
2023-05-31T00:26:25.251Z,13.10
2023-05-31T00:28:53.811Z,13.00
2023-05-31T00:31:22.381Z,13.00
2023-05-31T00:33:50.860Z,12.90
2023-05-31T00:36:19.083Z,12.90
2023-05-31T00:38:47.297Z,12.90
2023-05-31T00:41:18.114Z,12.80
2023-05-31T00:43:46.423Z,12.70
2023-05-31T00:46:27.331Z,12.70
2023-05-31T00:48:57.321Z,12.70
2023-05-31T00:51:28.709Z,12.70
2023-05-31T00:53:58.972Z,12.70
2023-05-31T00:56:29.070Z,12.60
2023-05-31T00:58:59.288Z,12.60
2023-05-31T01:01:28.515Z,12.60
2023-05-31T01:03:57.975Z,12.50
2023-05-31T01:06:26.423Z,12.50
2023-05-31T01:08:54.818Z,12.50
2023-05-31T01:11:37.284Z,12.40
2023-05-31T01:14:15.749Z,12.40
2023-05-31T01:16:53.475Z,12.30
2023-05-31T01:19:39.679Z,12.30
2023-05-31T01:22:18.815Z,12.30
2023-05-31T01:24:56.381Z,12.20
2023-05-31T01:27:29.387Z,12.20
2023-05-31T01:29:59.409Z,12.20
2023-05-31T01:32:29.456Z,12.10
2023-05-31T01:34:58.010Z,12.10
2023-05-31T01:37:26.438Z,12.00
2023-05-31T01:39:54.799Z,12.00
2023-05-31T01:42:25.798Z,12.00
2023-05-31T01:44:57.125Z,12.00
2023-05-31T01:47:25.812Z,12.00
2023-05-31T01:49:55.502Z,12.00
2023-05-31T01:52:24.424Z,11.90
2023-05-31T01:54:52.724Z,11.90
2023-05-31T01:57:23.672Z,11.90
2023-05-31T01:59:52.811Z,11.90
2023-05-31T02:02:23.187Z,11.80
2023-05-31T02:04:52.684Z,11.90
2023-05-31T02:07:22.381Z,11.90
2023-05-31T02:09:50.804Z,11.90
2023-05-31T02:12:19.427Z,11.90
2023-05-31T02:14:48.234Z,11.90
2023-05-31T02:17:17.385Z,11.90
2023-05-31T02:19:48.157Z,11.90
2023-05-31T02:22:16.850Z,11.80
2023-05-31T02:24:45.157Z,11.80
2023-05-31T02:27:13.398Z,11.80
2023-05-31T02:29:41.811Z,11.80
2023-05-31T02:32:10.313Z,11.80
2023-05-31T02:34:38.607Z,11.70
2023-05-31T02:37:08.447Z,11.70
2023-05-31T02:39:37.027Z,11.60
2023-05-31T02:42:06.098Z,11.60
2023-05-31T02:44:35.732Z,11.60
2023-05-31T02:47:05.157Z,11.60
2023-05-31T02:49:34.271Z,11.50
2023-05-31T02:52:02.594Z,11.50
2023-05-31T02:54:52.512Z,11.40
2023-05-31T02:57:24.247Z,11.40
2023-05-31T02:59:57.843Z,11.40
2023-05-31T03:02:26.440Z,11.30
2023-05-31T03:05:14.056Z,11.30
2023-05-31T03:07:42.393Z,11.30
2023-05-31T03:10:12.642Z,11.30
2023-05-31T03:12:40.958Z,11.30
2023-05-31T03:15:10.485Z,11.20
2023-05-31T03:17:39.565Z,11.10
2023-05-31T03:20:10.547Z,11.00
2023-05-31T03:22:41.231Z,11.00
2023-05-31T03:25:12.791Z,11.10
2023-05-31T03:27:41.348Z,11.10
2023-05-31T03:30:10.958Z,11.10
2023-05-31T03:32:47.835Z,11.00
2023-05-31T03:35:16.418Z,11.00
2023-05-31T03:37:45.379Z,11.00
2023-05-31T03:40:16.444Z,11.00
2023-05-31T03:42:44.818Z,11.00
2023-05-31T03:45:13.151Z,10.90
2023-05-31T03:47:41.824Z,10.90
2023-05-31T03:50:11.047Z,11.00
2023-05-31T03:52:39.703Z,11.00
2023-05-31T03:55:08.661Z,11.00
2023-05-31T03:57:41.820Z,11.00
2023-05-31T04:00:13.196Z,11.00
2023-05-31T04:02:52.164Z,11.10
2023-05-31T04:05:24.561Z,11.10
2023-05-31T04:07:53.017Z,11.20
2023-05-31T04:10:21.358Z,11.20
2023-05-31T04:12:51.086Z,11.20
2023-05-31T04:15:19.398Z,11.20
2023-05-31T04:17:47.754Z,11.30
2023-05-31T04:20:17.576Z,11.30
2023-05-31T04:22:45.874Z,11.30
2023-05-31T04:25:18.664Z,11.40
2023-05-31T04:27:48.611Z,11.40
2023-05-31T04:30:18.444Z,11.50
2023-05-31T04:32:52.480Z,11.50
2023-05-31T04:35:21.764Z,11.60
2023-05-31T04:37:53.832Z,11.60
2023-05-31T04:40:23.458Z,11.60
2023-05-31T04:42:52.170Z,11.70
2023-05-31T04:45:29.122Z,11.80
2023-05-31T04:47:58.758Z,11.80
2023-05-31T04:50:29.420Z,11.90
2023-05-31T04:52:59.243Z,12.00
2023-05-31T04:55:28.431Z,12.10
2023-05-31T04:58:00.318Z,12.10
2023-05-31T05:00:30.574Z,12.30
2023-05-31T05:03:10.940Z,12.30
2023-05-31T05:05:40.049Z,12.40
2023-05-31T05:08:09.333Z,12.50
2023-05-31T05:10:39.897Z,12.60
2023-05-31T05:13:08.615Z,12.70
2023-05-31T05:15:40.584Z,12.80
2023-05-31T05:18:08.956Z,12.90
2023-05-31T05:20:38.760Z,13.00
2023-05-31T05:23:08.425Z,13.10
2023-05-31T05:25:38.128Z,13.10
2023-05-31T05:28:06.595Z,13.30
2023-05-31T05:30:34.836Z,13.40
2023-05-31T05:33:05.919Z,13.40
2023-05-31T05:35:34.720Z,13.60
2023-05-31T05:38:02.833Z,13.70
2023-05-31T05:40:31.236Z,13.80
2023-05-31T05:43:01.962Z,13.90
2023-05-31T05:45:31.901Z,14.00
2023-05-31T05:48:00.400Z,14.10
2023-05-31T05:50:30.380Z,14.20
2023-05-31T05:52:58.919Z,14.30
2023-05-31T05:55:27.307Z,14.50
2023-05-31T05:57:56.445Z,14.50
2023-05-31T06:00:42.057Z,14.60
2023-05-31T06:03:10.513Z,14.80
2023-05-31T06:05:41.196Z,14.90
2023-05-31T06:08:09.582Z,15.10
2023-05-31T06:10:38.118Z,15.20
2023-05-31T06:13:07.200Z,15.40
2023-05-31T06:15:35.827Z,15.40
2023-05-31T06:18:04.274Z,15.60
2023-05-31T06:20:32.780Z,15.70
2023-05-31T06:23:03.431Z,15.80
2023-05-31T06:25:31.742Z,15.90
2023-05-31T06:28:00.066Z,16.10
2023-05-31T06:30:28.858Z,16.20
2023-05-31T06:32:58.180Z,16.30
2023-05-31T06:35:27.275Z,16.40
2023-05-31T06:37:55.731Z,16.60
2023-05-31T06:40:26.809Z,16.70
2023-05-31T06:42:55.132Z,16.80
2023-05-31T06:46:02.010Z,17.00
2023-05-31T06:48:54.862Z,17.10
2023-05-31T06:51:44.560Z,17.20
2023-05-31T06:54:39.104Z,17.40
2023-05-31T06:57:09.660Z,17.40
2023-05-31T06:59:38.292Z,17.50
2023-05-31T07:02:07.591Z,17.70
2023-05-31T07:04:36.157Z,17.80
2023-05-31T07:07:04.830Z,17.90
2023-05-31T07:09:34.626Z,18.00
2023-05-31T07:12:03.733Z,18.10
2023-05-31T07:14:37.042Z,18.20
2023-05-31T07:17:05.772Z,18.30
2023-05-31T07:19:34.099Z,18.40
2023-05-31T07:22:02.308Z,18.40
2023-05-31T07:24:30.523Z,18.50
2023-05-31T07:26:58.726Z,18.60
2023-05-31T07:29:26.974Z,18.70
2023-05-31T07:31:56.450Z,18.80
2023-05-31T07:34:24.693Z,18.90
2023-05-31T07:36:52.931Z,19.00
2023-05-31T07:39:24.205Z,19.10
2023-05-31T07:41:53.199Z,19.20
2023-05-31T07:44:23.019Z,19.30
2023-05-31T07:46:51.202Z,19.40
2023-05-31T07:49:21.074Z,19.50
2023-05-31T07:51:49.448Z,19.60
2023-05-31T07:54:17.835Z,19.70
2023-05-31T07:56:46.162Z,19.80
2023-05-31T07:59:14.652Z,19.90
2023-05-31T08:01:44.101Z,19.90
2023-05-31T08:04:13.515Z,20.00
2023-05-31T08:06:43.988Z,20.10
2023-05-31T08:09:12.608Z,20.20
2023-05-31T08:11:41.015Z,20.20
2023-05-31T08:14:09.338Z,20.30
2023-05-31T08:16:38.001Z,20.40
2023-05-31T08:19:06.389Z,20.40
2023-05-31T08:21:37.555Z,20.50
2023-05-31T08:24:08.083Z,20.60
2023-05-31T08:26:36.536Z,20.70
2023-05-31T08:29:04.726Z,20.80
2023-05-31T08:31:33.954Z,20.90
2023-05-31T08:34:02.315Z,21.00
2023-05-31T08:36:30.648Z,21.10
2023-05-31T08:38:59.037Z,21.20
2023-05-31T08:41:36.399Z,21.20
2023-05-31T08:44:06.894Z,21.30
2023-05-31T08:46:36.665Z,21.50
2023-05-31T08:49:11.799Z,21.50
2023-05-31T08:51:42.403Z,21.60
2023-05-31T08:54:12.228Z,21.70
2023-05-31T08:56:44.412Z,21.80
2023-05-31T08:59:13.836Z,21.80
2023-05-31T09:01:44.629Z,21.90
2023-05-31T09:04:14.054Z,21.90
2023-05-31T09:06:42.477Z,22.00
2023-05-31T09:09:10.702Z,22.00
2023-05-31T09:11:41.428Z,22.00
2023-05-31T09:14:11.208Z,22.00
2023-05-31T09:16:39.674Z,22.10
2023-05-31T09:19:08.825Z,22.20
2023-05-31T09:21:41.869Z,22.20
2023-05-31T09:24:11.536Z,22.30
2023-05-31T09:26:47.941Z,22.40
2023-05-31T09:29:19.114Z,22.50
2023-05-31T09:31:47.929Z,22.60
2023-05-31T09:34:27.217Z,22.60
2023-05-31T09:36:59.923Z,22.70
2023-05-31T09:39:28.297Z,22.70
2023-05-31T09:41:58.917Z,22.80
2023-05-31T09:44:30.186Z,22.70
2023-05-31T09:46:59.069Z,22.80
2023-05-31T09:49:29.434Z,22.90
2023-05-31T09:51:58.283Z,22.90
2023-05-31T09:54:28.680Z,23.00
2023-05-31T09:56:58.697Z,23.10
2023-05-31T09:59:27.092Z,23.10
2023-05-31T10:01:56.978Z,23.20
2023-05-31T10:04:25.709Z,23.30
2023-05-31T10:06:54.126Z,23.40
2023-05-31T10:09:23.071Z,23.50
2023-05-31T10:11:53.461Z,23.50
2023-05-31T10:14:26.945Z,23.50
2023-05-31T10:16:58.481Z,23.60
2023-05-31T10:19:37.008Z,23.60
2023-05-31T10:22:07.823Z,23.70
2023-05-31T10:24:54.065Z,23.80
2023-05-31T10:27:32.507Z,23.80
2023-05-31T10:30:06.391Z,24.00
2023-05-31T10:32:41.461Z,24.10
2023-05-31T10:35:12.172Z,24.20
2023-05-31T10:37:42.773Z,24.30
2023-05-31T10:40:17.734Z,24.40
2023-05-31T10:42:54.530Z,24.50
2023-05-31T10:45:27.768Z,24.50
2023-05-31T10:48:02.832Z,24.50
2023-05-31T10:50:31.756Z,24.50
2023-05-31T10:53:12.365Z,24.50
2023-05-31T10:55:44.613Z,24.50
2023-05-31T10:58:27.949Z,24.50
2023-05-31T11:00:57.428Z,24.60
2023-05-31T11:03:28.726Z,24.60
2023-05-31T11:05:58.696Z,24.70
2023-05-31T11:08:27.144Z,24.80
2023-05-31T11:11:22.322Z,24.80
2023-05-31T11:14:01.150Z,24.80
2023-05-31T11:16:30.201Z,24.80
2023-05-31T11:19:08.460Z,24.90
2023-05-31T11:21:49.678Z,25.00
2023-05-31T11:24:31.381Z,25.00
2023-05-31T11:27:01.355Z,25.00
2023-05-31T11:30:00.919Z,25.10
2023-05-31T11:33:02.610Z,25.20
2023-05-31T11:35:34.750Z,25.30
2023-05-31T11:38:08.292Z,25.40
2023-05-31T11:40:38.235Z,25.50
2023-05-31T11:43:10.287Z,25.60
2023-05-31T11:45:45.975Z,25.70
2023-05-31T11:48:25.701Z,25.80
2023-05-31T11:50:57.036Z,25.90
2023-05-31T11:53:26.529Z,26.00
2023-05-31T11:55:54.921Z,26.10
2023-05-31T11:58:23.939Z,26.20
2023-05-31T12:00:52.365Z,26.30
2023-05-31T12:03:21.971Z,26.40
2023-05-31T12:05:58.486Z,26.40
2023-05-31T12:08:27.420Z,26.40
2023-05-31T12:10:56.102Z,26.50
2023-05-31T12:13:24.531Z,26.50
2023-05-31T12:15:54.910Z,26.60
2023-05-31T12:18:24.526Z,26.70
2023-05-31T12:20:53.076Z,26.80
2023-05-31T12:23:23.954Z,26.90
2023-05-31T12:25:53.267Z,27.00
2023-05-31T12:28:22.918Z,27.10
2023-05-31T12:30:53.203Z,27.20
2023-05-31T12:33:21.915Z,27.30
2023-05-31T12:35:50.404Z,27.40
2023-05-31T12:38:18.820Z,27.50
2023-05-31T12:40:48.412Z,27.60
2023-05-31T12:43:19.544Z,27.70
2023-05-31T12:45:48.077Z,27.80
2023-05-31T12:48:16.323Z,27.80
2023-05-31T12:50:47.869Z,27.90
2023-05-31T12:53:17.361Z,27.90
2023-05-31T12:55:46.467Z,27.80
2023-05-31T12:58:16.295Z,27.70
2023-05-31T13:00:45.318Z,27.60
2023-05-31T13:03:15.644Z,27.50
2023-05-31T13:05:44.679Z,27.50
2023-05-31T13:08:13.061Z,27.60
2023-05-31T13:10:42.048Z,27.60
2023-05-31T13:13:10.543Z,27.60
2023-05-31T13:15:40.282Z,27.60
2023-05-31T13:18:09.149Z,27.80
2023-05-31T13:20:37.284Z,27.90
2023-05-31T13:23:07.769Z,27.90
2023-05-31T13:25:36.144Z,27.90
2023-05-31T13:28:04.372Z,27.90
2023-05-31T13:30:32.747Z,27.90
2023-05-31T13:33:02.810Z,28.00
2023-05-31T13:35:31.140Z,28.00
2023-05-31T13:37:59.579Z,28.00
2023-05-31T13:40:27.704Z,28.10
2023-05-31T13:42:56.920Z,28.20
2023-05-31T13:45:25.114Z,28.20
2023-05-31T13:47:53.628Z,28.20
2023-05-31T13:50:23.430Z,28.30
2023-05-31T13:52:51.966Z,28.40
2023-05-31T13:55:21.572Z,28.60
2023-05-31T13:57:49.777Z,29.50
2023-05-31T14:00:19.086Z,30.60
2023-05-31T14:02:48.331Z,32.00
2023-05-31T14:05:17.060Z,33.40
2023-05-31T14:07:46.805Z,34.50
2023-05-31T14:10:15.416Z,35.50
2023-05-31T14:12:43.865Z,36.60
2023-05-31T14:15:12.572Z,37.50
2023-05-31T14:17:41.188Z,38.10
2023-05-31T14:20:10.539Z,38.90
2023-05-31T14:22:38.904Z,39.30
2023-05-31T14:25:10.185Z,39.90
2023-05-31T14:27:38.471Z,40.00
2023-05-31T14:30:08.392Z,40.30
2023-05-31T14:32:36.926Z,40.80
2023-05-31T14:35:06.864Z,41.10
2023-05-31T14:37:40.755Z,41.60
2023-05-31T14:40:15.955Z,41.70
2023-05-31T14:42:44.593Z,42.10
2023-05-31T14:45:13.002Z,42.10
2023-05-31T14:47:43.853Z,42.30
2023-05-31T14:50:14.325Z,42.40
2023-05-31T14:52:42.926Z,42.40
2023-05-31T14:55:12.581Z,42.90
2023-05-31T14:57:42.735Z,42.90
2023-05-31T15:00:13.381Z,43.10
2023-05-31T15:02:41.808Z,43.30
2023-05-31T15:05:12.214Z,43.30
2023-05-31T15:07:40.788Z,43.20
2023-05-31T15:10:10.184Z,43.10
2023-05-31T15:12:38.690Z,43.20
2023-05-31T15:15:09.627Z,43.30
2023-05-31T15:17:37.901Z,43.40
2023-05-31T15:20:06.937Z,43.60
2023-05-31T15:22:35.451Z,43.60
2023-05-31T15:25:03.853Z,43.40
2023-05-31T15:27:32.088Z,43.30
2023-05-31T15:30:00.999Z,43.10
2023-05-31T15:32:30.933Z,43.00
2023-05-31T15:34:59.402Z,43.00
2023-05-31T15:37:27.712Z,43.00
2023-05-31T15:39:56.444Z,43.00
2023-05-31T15:42:26.941Z,43.20
2023-05-31T15:44:55.156Z,43.20
2023-05-31T15:47:23.452Z,43.00
2023-05-31T15:49:53.772Z,43.00
2023-05-31T15:52:22.088Z,42.90
2023-05-31T15:54:50.496Z,43.20
2023-05-31T15:57:19.193Z,43.30
2023-05-31T15:59:47.602Z,43.00
2023-05-31T16:02:16.032Z,43.10
2023-05-31T16:04:44.523Z,43.00
2023-05-31T16:07:14.149Z,42.70
2023-05-31T16:09:43.376Z,42.60
2023-05-31T16:12:12.347Z,42.70
2023-05-31T16:14:41.501Z,42.60
2023-05-31T16:17:09.798Z,42.70
2023-05-31T16:19:38.310Z,42.30
2023-05-31T16:22:07.042Z,41.80
2023-05-31T16:24:37.844Z,41.60
2023-05-31T16:27:06.853Z,41.60
2023-05-31T16:29:35.185Z,41.30
2023-05-31T16:32:03.735Z,40.90
2023-05-31T16:34:32.088Z,40.90
2023-05-31T16:37:00.504Z,41.00
2023-05-31T16:39:28.900Z,40.90
2023-05-31T16:41:58.691Z,40.60
2023-05-31T16:44:27.225Z,40.30
2023-05-31T16:46:56.769Z,40.10
2023-05-31T16:49:25.041Z,39.70
2023-05-31T16:51:53.555Z,39.60
2023-05-31T16:54:21.768Z,39.70
2023-05-31T16:56:50.076Z,39.50
2023-05-31T16:59:19.612Z,39.30
2023-05-31T17:01:48.154Z,39.00
2023-05-31T17:04:16.546Z,38.60
2023-05-31T17:06:45.080Z,38.40
2023-05-31T17:09:13.316Z,38.30
2023-05-31T17:11:41.747Z,38.30
2023-05-31T17:14:10.054Z,38.20
2023-05-31T17:16:40.079Z,37.80
2023-05-31T17:19:08.665Z,37.80
2023-05-31T17:21:37.918Z,37.60
2023-05-31T17:24:07.086Z,37.30
2023-05-31T17:26:36.612Z,37.20
2023-05-31T17:29:05.000Z,36.90
2023-05-31T17:31:33.214Z,36.60
2023-05-31T17:34:03.351Z,36.40
2023-05-31T17:36:31.665Z,36.30
2023-05-31T17:39:00.138Z,35.90
2023-05-31T17:41:28.483Z,35.50
2023-05-31T17:43:56.874Z,35.10
2023-05-31T17:46:25.101Z,34.70
2023-05-31T17:48:53.420Z,34.60
2023-05-31T17:51:23.207Z,34.40
2023-05-31T17:53:51.436Z,34.30
2023-05-31T17:56:19.757Z,34.00
2023-05-31T17:58:48.236Z,33.60
2023-05-31T18:01:16.880Z,33.20
2023-05-31T18:03:45.262Z,32.90
2023-05-31T18:06:13.808Z,32.70
2023-05-31T18:08:43.412Z,32.50
2023-05-31T18:11:11.820Z,32.30
2023-05-31T18:13:40.483Z,32.00
2023-05-31T18:16:09.271Z,31.60
2023-05-31T18:18:37.925Z,31.20
2023-05-31T18:21:06.246Z,30.60
2023-05-31T18:23:35.950Z,30.00
2023-05-31T18:26:08.578Z,29.40
2023-05-31T18:28:37.190Z,28.70
2023-05-31T18:31:05.782Z,28.30
2023-05-31T18:33:34.175Z,28.00
2023-05-31T18:36:02.612Z,27.50
2023-05-31T18:38:31.092Z,27.30
2023-05-31T18:40:59.567Z,26.90
2023-05-31T18:43:29.936Z,26.40
2023-05-31T18:45:58.894Z,26.10
2023-05-31T18:48:27.172Z,25.70
2023-05-31T18:50:56.296Z,25.30
2023-05-31T18:53:24.779Z,25.00
2023-05-31T18:55:53.224Z,24.70
2023-05-31T18:58:22.537Z,24.40
2023-05-31T19:00:52.491Z,24.10
2023-05-31T19:03:20.808Z,23.90
2023-05-31T19:05:49.236Z,23.60
2023-05-31T19:08:17.521Z,23.50
2023-05-31T19:10:45.976Z,23.30
2023-05-31T19:13:14.577Z,23.00
2023-05-31T19:15:42.982Z,22.80
2023-05-31T19:18:18.330Z,22.70
2023-05-31T19:20:49.671Z,22.60
2023-05-31T19:23:20.116Z,22.40
2023-05-31T19:25:48.451Z,22.10
2023-05-31T19:28:17.133Z,21.90
2023-05-31T19:30:45.577Z,21.70
2023-05-31T19:33:16.126Z,21.50
2023-05-31T19:35:44.585Z,21.40
2023-05-31T19:38:13.778Z,21.40
2023-05-31T19:40:42.011Z,21.30
2023-05-31T19:43:10.502Z,21.10
2023-05-31T19:45:39.026Z,21.00
2023-05-31T19:48:09.300Z,20.90
2023-05-31T19:50:39.477Z,20.80
2023-05-31T19:53:08.176Z,20.70
2023-05-31T19:55:37.594Z,20.60
2023-05-31T19:58:06.076Z,20.50
2023-05-31T20:00:34.492Z,20.40
2023-05-31T20:03:03.086Z,20.20
2023-05-31T20:05:31.601Z,20.20
2023-05-31T20:08:01.523Z,20.10
2023-05-31T20:10:30.341Z,19.90
2023-05-31T20:12:58.885Z,19.80
2023-05-31T20:15:27.296Z,19.80
2023-05-31T20:17:56.385Z,19.60
2023-05-31T20:20:24.712Z,19.50
2023-05-31T20:22:53.070Z,19.40
2023-05-31T20:25:22.700Z,19.30
2023-05-31T20:27:51.019Z,19.20
2023-05-31T20:30:19.413Z,19.00
2023-05-31T20:32:47.996Z,19.00
2023-05-31T20:35:16.488Z,18.90
2023-05-31T20:37:45.148Z,18.70
2023-05-31T20:40:14.311Z,18.70
2023-05-31T20:42:44.303Z,18.60
2023-05-31T20:45:12.834Z,18.60
2023-05-31T20:47:41.163Z,18.50
2023-05-31T20:50:13.319Z,18.50
2023-05-31T20:52:41.847Z,18.40
2023-05-31T20:55:12.199Z,18.30
2023-05-31T20:57:41.162Z,18.20
2023-05-31T21:00:12.496Z,18.10
2023-05-31T21:02:41.025Z,18.00
2023-05-31T21:05:09.706Z,17.90
2023-05-31T21:07:38.083Z,17.80
2023-05-31T21:10:08.196Z,17.70
2023-05-31T21:12:36.811Z,17.60
2023-05-31T21:15:05.923Z,17.60
2023-05-31T21:17:36.697Z,17.50
2023-05-31T21:20:05.838Z,17.50
2023-05-31T21:22:34.200Z,17.50
2023-05-31T21:25:02.584Z,17.40
2023-05-31T21:27:31.088Z,17.40
2023-05-31T21:29:59.499Z,17.40
2023-05-31T21:32:28.264Z,17.30
2023-05-31T21:34:58.025Z,17.30
2023-05-31T21:37:26.441Z,17.20
2023-05-31T21:39:54.649Z,17.20
2023-05-31T21:42:23.071Z,17.20
2023-05-31T21:44:51.437Z,17.10
2023-05-31T21:47:19.827Z,17.00
2023-05-31T21:49:48.406Z,17.00
2023-05-31T21:52:18.184Z,17.00
2023-05-31T21:54:46.876Z,16.90
2023-05-31T21:57:15.220Z,16.80
2023-05-31T21:59:43.717Z,16.80
2023-05-31T22:02:12.069Z,16.80
2023-05-31T22:04:40.609Z,16.80
2023-05-31T22:07:09.102Z,16.70
2023-05-31T22:09:38.814Z,16.70
2023-05-31T22:12:07.277Z,16.60
2023-05-31T22:14:35.615Z,16.60
2023-05-31T22:17:04.672Z,16.50
2023-05-31T22:19:33.210Z,16.50
2023-05-31T22:22:01.642Z,16.40
2023-05-31T22:24:29.933Z,16.40
2023-05-31T22:26:59.890Z,16.30
2023-05-31T22:29:29.371Z,16.30
2023-05-31T22:31:57.865Z,16.30
2023-05-31T22:34:28.187Z,16.30
2023-05-31T22:36:56.598Z,16.20
2023-05-31T22:39:24.906Z,16.20
2023-05-31T22:41:53.307Z,16.20
2023-05-31T22:44:22.929Z,16.10
2023-05-31T22:46:51.272Z,16.10
2023-05-31T22:49:21.987Z,16.00
2023-05-31T22:51:51.366Z,16.00
2023-05-31T22:54:19.760Z,15.90
2023-05-31T22:56:48.145Z,15.90
2023-05-31T22:59:16.505Z,15.80
2023-05-31T23:01:46.744Z,15.80
2023-05-31T23:04:17.513Z,15.80
2023-05-31T23:06:47.386Z,15.70
2023-05-31T23:09:16.331Z,15.70
2023-05-31T23:11:45.735Z,15.70
2023-05-31T23:14:16.696Z,15.60
2023-05-31T23:16:46.818Z,15.70
2023-05-31T23:19:15.483Z,15.60
2023-05-31T23:21:46.668Z,15.60
2023-05-31T23:24:15.229Z,15.50
2023-05-31T23:26:43.435Z,15.50
2023-05-31T23:29:11.634Z,15.50
2023-05-31T23:31:40.137Z,15.40
2023-05-31T23:34:09.861Z,15.30
2023-05-31T23:36:38.584Z,15.30
2023-05-31T23:39:07.673Z,15.30
2023-05-31T23:41:36.094Z,15.30
2023-05-31T23:44:04.388Z,15.20
2023-05-31T23:46:32.841Z,15.20
2023-05-31T23:49:01.373Z,15.20
2023-05-31T23:51:31.646Z,15.10
2023-05-31T23:54:00.251Z,15.10
2023-05-31T23:56:28.542Z,15.20
2023-05-31T23:58:56.896Z,15.20
